Time;durP1;ratioP1;P1;durP2;ratioP2;P2;SDS_P1;SDS_P2;PMS_P1;PMS_P2;Temp;Humidity;BMP_temperature;BMP_pressure;BME280_temperature;BME280_humidity;BME280_pressure;Samples;Min_cycle;Max_cycle;Signal;HPM_P1;HPM_P2
2021/05/19 00:01:49;;;;;;;7.53;4.13;;;10.90;84.10;;;;;;3562490;40;20712;-65
2021/05/19 00:04:15;;;;;;;6.78;4.45;;;10.80;85.20;;;;;;3562260;40;20040;-65
2021/05/19 00:06:41;;;;;;;6.10;4.25;;;10.80;85.90;;;;;;3561396;40;20102;-65
2021/05/19 00:09:09;;;;;;;5.25;3.20;;;10.80;86.00;;;;;;3561909;40;20037;-65
2021/05/19 00:11:36;;;;;;;4.07;3.10;;;10.80;85.20;;;;;;3561718;40;20119;-65
2021/05/19 00:14:03;;;;;;;4.22;3.05;;;10.70;84.00;;;;;;3560058;40;20073;-65
2021/05/19 00:16:29;;;;;;;5.63;3.28;;;10.70;83.60;;;;;;3562356;40;20058;-65
2021/05/19 00:18:55;;;;;;;4.20;3.15;;;10.70;83.20;;;;;;3561926;40;20036;-65
2021/05/19 00:21:21;;;;;;;3.78;3.35;;;10.60;82.70;;;;;;3561969;40;20037;-65
2021/05/19 00:23:47;;;;;;;6.25;3.70;;;10.50;83.10;;;;;;3560970;40;20038;-65
2021/05/19 00:26:13;;;;;;;5.90;4.13;;;10.50;83.90;;;;;;3561338;40;20411;-65
2021/05/19 00:28:39;;;;;;;6.10;3.67;;;10.50;84.70;;;;;;3559131;40;20037;-66
2021/05/19 00:31:06;;;;;;;6.40;4.35;;;10.50;85.00;;;;;;3559951;40;20049;-66
2021/05/19 00:33:32;;;;;;;5.90;4.40;;;10.50;85.50;;;;;;3560297;40;20403;-65
2021/05/19 00:35:58;;;;;;;7.35;4.22;;;10.50;85.70;;;;;;3560311;40;20038;-65
2021/05/19 00:38:24;;;;;;;4.32;3.50;;;10.40;85.40;;;;;;3560333;40;20052;-66
2021/05/19 00:40:50;;;;;;;4.95;4.40;;;10.50;84.90;;;;;;3560597;40;20053;-65
2021/05/19 00:43:16;;;;;;;7.38;4.55;;;10.50;84.80;;;;;;3560782;40;20045;-65
2021/05/19 00:45:42;;;;;;;7.25;4.80;;;10.50;85.60;;;;;;3560843;40;20029;-65
2021/05/19 00:48:10;;;;;;;6.43;4.68;;;10.50;86.20;;;;;;3561138;40;20033;-65
2021/05/19 00:50:38;;;;;;;5.78;3.88;;;10.50;85.90;;;;;;3559368;40;20716;-65
2021/05/19 00:53:03;;;;;;;8.55;4.43;;;10.60;85.70;;;;;;3558203;40;20388;-65
2021/05/19 00:55:29;;;;;;;5.20;4.00;;;10.60;85.50;;;;;;3559751;40;20415;-65
2021/05/19 00:57:56;;;;;;;5.40;3.55;;;10.60;85.50;;;;;;3560254;40;20041;-65
2021/05/19 01:00:26;;;;;;;5.13;4.20;;;10.60;84.70;;;;;;3560227;40;20072;-65
2021/05/19 01:03:01;;;;;;;6.15;4.35;;;10.70;84.70;;;;;;3554749;40;20045;-65
2021/05/19 01:05:37;;;;;;;5.38;4.15;;;10.70;84.00;;;;;;3561471;40;20033;-65
2021/05/19 01:10:55;;;;;;;4.93;3.70;;;10.70;85.10;;;;;;3560848;40;20036;-65
2021/05/19 01:13:21;;;;;;;4.10;3.45;;;10.70;84.90;;;;;;3561670;40;20061;-65
2021/05/19 01:15:47;;;;;;;5.55;3.72;;;10.70;84.50;;;;;;3554928;40;20064;-65
2021/05/19 01:18:13;;;;;;;7.00;4.15;;;10.80;84.80;;;;;;3562059;40;20097;-65
2021/05/19 01:20:39;;;;;;;5.20;4.25;;;10.90;85.10;;;;;;3561766;40;20451;-65
2021/05/19 01:23:07;;;;;;;6.90;4.45;;;10.90;85.10;;;;;;3561989;40;20131;-65
2021/05/19 01:25:34;;;;;;;6.07;4.63;;;11.00;85.40;;;;;;3561534;40;20037;-65
2021/05/19 01:28:02;;;;;;;5.00;4.03;;;11.00;85.30;;;;;;3564432;40;20127;-65
2021/05/19 01:30:30;;;;;;;6.15;4.28;;;11.00;85.10;;;;;;3561101;40;20026;-65
2021/05/19 01:32:56;;;;;;;8.20;3.58;;;11.10;85.00;;;;;;3561076;40;20049;-65
2021/05/19 01:35:22;;;;;;;4.28;3.33;;;11.10;84.60;;;;;;3559518;40;20268;-65
2021/05/19 01:37:48;;;;;;;5.93;4.07;;;11.10;84.30;;;;;;3560890;40;20033;-65
2021/05/19 01:40:22;;;;;;;5.15;3.53;;;11.20;83.80;;;;;;3560970;40;20064;-65
2021/05/19 01:42:50;;;;;;;4.40;3.53;;;11.20;83.50;;;;;;3560057;40;20044;-65
2021/05/19 01:45:44;;;;;;;4.70;3.40;;;11.20;83.40;;;;;;3556392;40;20468;-65
2021/05/19 01:48:15;;;;;;;4.30;3.90;;;11.30;83.70;;;;;;3561686;40;20053;-65
2021/05/19 01:50:42;;;;;;;4.28;3.72;;;11.30;84.20;;;;;;3561089;40;20622;-65
2021/05/19 01:53:08;;;;;;;5.40;4.07;;;11.30;84.50;;;;;;3562985;40;20025;-65
2021/05/19 01:55:34;;;;;;;7.13;3.90;;;11.40;84.80;;;;;;3562066;40;20432;-65
2021/05/19 01:58:00;;;;;;;6.60;4.40;;;11.40;85.00;;;;;;3562158;40;20124;-65
2021/05/19 02:00:28;;;;;;;5.90;4.18;;;11.40;85.00;;;;;;3559991;40;20060;-65
2021/05/19 02:03:05;;;;;;;5.15;3.83;;;11.40;84.90;;;;;;3562266;40;20067;-65
2021/05/19 02:05:41;;;;;;;5.43;3.88;;;11.50;84.50;;;;;;3558017;40;20045;-65
2021/05/19 02:08:08;;;;;;;3.90;3.05;;;11.50;83.70;;;;;;3562175;40;20037;-65
2021/05/19 02:10:39;;;;;;;7.50;3.83;;;11.50;83.40;;;;;;3556689;40;20029;-65
2021/05/19 02:13:10;;;;;;;5.50;3.55;;;11.50;83.20;;;;;;3559944;40;20071;-65
2021/05/19 02:15:37;;;;;;;5.10;3.38;;;11.60;83.50;;;;;;3560787;40;20350;-65
2021/05/19 02:18:04;;;;;;;5.95;4.07;;;11.60;83.80;;;;;;3559266;40;20034;-65
2021/05/19 02:20:32;;;;;;;5.00;3.60;;;11.60;83.80;;;;;;3561652;40;20049;-65
2021/05/19 02:22:59;;;;;;;6.47;3.97;;;11.60;84.00;;;;;;3561699;40;20046;-65
2021/05/19 02:25:26;;;;;;;5.10;3.70;;;11.60;84.10;;;;;;3567926;40;20168;-65
2021/05/19 02:27:53;;;;;;;6.32;3.95;;;11.60;84.20;;;;;;3567508;40;20097;-65
2021/05/19 02:30:25;;;;;;;4.43;3.65;;;11.60;84.20;;;;;;3556658;40;20055;-65
2021/05/19 02:32:51;;;;;;;4.55;3.35;;;11.60;84.10;;;;;;3559023;40;20054;-65
2021/05/19 02:35:19;;;;;;;5.63;3.75;;;11.60;84.20;;;;;;3557584;40;20037;-65
2021/05/19 02:37:52;;;;;;;4.55;3.45;;;11.60;84.60;;;;;;3567030;40;20067;-65
2021/05/19 02:40:18;;;;;;;4.00;3.58;;;11.60;84.90;;;;;;3559801;40;20319;-64
2021/05/19 02:42:44;;;;;;;4.70;3.67;;;11.70;85.20;;;;;;3561610;40;20106;-66
2021/05/19 02:45:14;;;;;;;5.10;4.28;;;11.70;85.60;;;;;;3561678;40;20685;-65
2021/05/19 02:47:40;;;;;;;5.00;4.25;;;11.70;86.10;;;;;;3559892;40;20856;-65
2021/05/19 02:50:07;;;;;;;4.80;4.15;;;11.70;86.40;;;;;;3562577;40;20026;-65
2021/05/19 02:52:32;;;;;;;5.38;4.28;;;11.70;86.90;;;;;;3560870;40;20324;-65
2021/05/19 02:54:58;;;;;;;6.00;5.38;;;11.70;87.00;;;;;;3561708;40;20078;-67
2021/05/19 02:57:24;;;;;;;5.60;4.43;;;11.70;87.20;;;;;;3561708;40;20140;-65
2021/05/19 02:59:50;;;;;;;6.80;4.82;;;11.80;87.50;;;;;;3561363;40;20091;-65
2021/05/19 03:02:16;;;;;;;6.57;4.85;;;11.80;87.70;;;;;;3562360;40;20526;-65
2021/05/19 03:04:41;;;;;;;5.38;4.88;;;11.80;87.90;;;;;;3561569;40;20044;-65
2021/05/19 03:07:07;;;;;;;6.10;4.93;;;11.80;88.20;;;;;;3562105;40;20032;-65
2021/05/19 03:09:33;;;;;;;5.95;4.70;;;11.80;88.20;;;;;;3560879;40;20647;-65
2021/05/19 03:11:58;;;;;;;7.35;5.28;;;11.90;88.50;;;;;;3560440;40;20034;-65
2021/05/19 03:14:24;;;;;;;5.82;4.85;;;11.90;88.50;;;;;;3559481;40;20028;-65
2021/05/19 03:16:50;;;;;;;6.25;4.90;;;11.90;88.40;;;;;;3561399;40;20065;-65
2021/05/19 03:19:15;;;;;;;6.68;5.03;;;11.90;88.40;;;;;;3561230;40;20032;-65
2021/05/19 03:21:41;;;;;;;7.10;5.28;;;11.90;88.60;;;;;;3561805;40;20122;-64
2021/05/19 03:24:07;;;;;;;8.32;5.07;;;11.90;88.60;;;;;;3561711;40;20642;-65
2021/05/19 03:26:33;;;;;;;7.15;5.40;;;11.90;88.60;;;;;;3560939;40;20548;-65
2021/05/19 03:28:59;;;;;;;6.88;5.60;;;12.00;88.70;;;;;;3561391;40;20030;-65
2021/05/19 03:31:25;;;;;;;6.00;5.28;;;12.00;88.70;;;;;;3554207;40;20295;-65
2021/05/19 03:33:50;;;;;;;6.47;5.53;;;12.00;88.70;;;;;;3560829;40;20411;-65
2021/05/19 03:36:16;;;;;;;8.18;6.15;;;12.10;88.70;;;;;;3561728;40;20033;-64
2021/05/19 03:38:42;;;;;;;7.05;4.90;;;12.10;88.70;;;;;;3561082;40;20573;-65
2021/05/19 03:41:08;;;;;;;6.60;5.03;;;12.10;88.60;;;;;;3560224;40;20026;-65
2021/05/19 03:43:36;;;;;;;8.98;5.97;;;12.20;88.40;;;;;;3558120;40;20044;-65
2021/05/19 03:46:02;;;;;;;10.52;6.28;;;12.20;88.30;;;;;;3561119;40;20029;-65
2021/05/19 03:48:27;;;;;;;13.07;7.07;;;12.20;88.40;;;;;;3556760;40;20156;-64
2021/05/19 03:50:53;;;;;;;8.85;5.95;;;12.20;88.30;;;;;;3560480;40;20034;-66
2021/05/19 03:53:19;;;;;;;9.18;6.63;;;12.30;88.00;;;;;;3560932;40;20074;-65
2021/05/19 03:55:45;;;;;;;8.52;6.20;;;12.30;87.90;;;;;;3565655;40;20037;-65
2021/05/19 03:58:12;;;;;;;7.72;6.30;;;12.30;87.80;;;;;;3560659;40;20053;-65
2021/05/19 04:00:39;;;;;;;9.23;6.55;;;12.30;87.70;;;;;;3563627;40;20122;-67
2021/05/19 04:03:05;;;;;;;8.85;6.10;;;12.40;87.80;;;;;;3559665;40;20037;-65
2021/05/19 04:05:36;;;;;;;7.88;6.32;;;12.40;87.80;;;;;;3561020;40;20033;-65
2021/05/19 04:08:03;;;;;;;8.43;6.43;;;12.40;87.70;;;;;;3559962;40;20022;-64
2021/05/19 04:10:29;;;;;;;8.77;6.50;;;12.40;87.80;;;;;;3559793;40;20030;-65
2021/05/19 04:12:55;;;;;;;11.45;6.93;;;12.40;87.80;;;;;;3560016;40;20053;-65
2021/05/19 04:15:22;;;;;;;7.88;5.88;;;12.40;87.40;;;;;;3558990;40;20308;-65
2021/05/19 04:17:49;;;;;;;9.57;6.57;;;12.40;87.30;;;;;;3559871;40;20034;-66
2021/05/19 04:20:16;;;;;;;7.97;6.30;;;12.50;87.30;;;;;;3550663;40;20033;-66
2021/05/19 04:22:42;;;;;;;8.70;6.63;;;12.60;87.30;;;;;;3560523;40;20123;-65
2021/05/19 04:25:09;;;;;;;8.93;6.78;;;12.70;87.00;;;;;;3555359;40;20062;-65
2021/05/19 04:27:35;;;;;;;8.77;6.70;;;12.80;86.40;;;;;;3560094;40;20036;-65
2021/05/19 04:30:01;;;;;;;9.50;7.03;;;12.80;85.90;;;;;;3559992;40;20029;-66
2021/05/19 04:32:26;;;;;;;7.95;6.35;;;12.90;85.70;;;;;;3560527;40;20057;-65
2021/05/19 04:34:52;;;;;;;7.70;6.20;;;12.90;84.80;;;;;;3561700;40;20034;-65
2021/05/19 04:37:18;;;;;;;8.93;7.20;;;13.00;84.90;;;;;;3560931;40;20234;-65
2021/05/19 04:39:43;;;;;;;8.18;6.03;;;13.00;84.80;;;;;;3559532;40;20025;-66
2021/05/19 04:42:09;;;;;;;7.45;6.03;;;13.10;84.80;;;;;;3559679;40;20038;-65
2021/05/19 04:44:35;;;;;;;8.18;6.88;;;13.00;84.40;;;;;;3561046;40;20407;-65
2021/05/19 04:47:01;;;;;;;8.52;6.65;;;13.00;84.30;;;;;;3560236;40;20046;-65
2021/05/19 04:49:27;;;;;;;7.95;5.97;;;13.00;84.50;;;;;;3560989;40;20034;-65
2021/05/19 04:51:52;;;;;;;8.73;6.72;;;13.00;84.60;;;;;;3562624;40;20033;-65
2021/05/19 04:54:18;;;;;;;8.02;5.68;;;13.00;84.20;;;;;;3560647;40;20056;-65
2021/05/19 04:56:44;;;;;;;8.80;5.95;;;12.90;84.40;;;;;;3560185;40;20025;-65
2021/05/19 04:59:10;;;;;;;7.53;6.32;;;12.90;84.70;;;;;;3559878;40;20474;-65
2021/05/19 05:01:35;;;;;;;7.85;5.97;;;13.00;84.80;;;;;;3560067;40;20073;-65
2021/05/19 05:04:01;;;;;;;6.85;6.15;;;13.00;84.30;;;;;;3560198;40;20588;-69
2021/05/19 05:06:27;;;;;;;7.60;6.28;;;12.90;82.90;;;;;;3559894;40;20206;-70
2021/05/19 05:08:53;;;;;;;8.30;6.63;;;12.90;83.60;;;;;;3560196;40;20030;-69
2021/05/19 05:11:18;;;;;;;9.23;6.20;;;13.00;83.80;;;;;;3559406;40;20053;-70
2021/05/19 05:13:44;;;;;;;9.65;6.65;;;13.00;83.20;;;;;;3560011;40;20041;-70
2021/05/19 05:16:10;;;;;;;10.32;6.35;;;13.10;82.90;;;;;;3560925;40;20028;-69
2021/05/19 05:18:41;;;;;;;7.30;6.15;;;13.30;82.80;;;;;;3562086;40;20049;-69
2021/05/19 05:21:09;;;;;;;10.35;5.80;;;13.50;81.20;;;;;;3560628;40;20112;-69
2021/05/19 05:23:35;;;;;;;6.68;5.07;;;13.90;80.50;;;;;;3561870;40;20038;-68
2021/05/19 05:26:03;;;;;;;8.80;5.45;;;14.30;78.60;;;;;;3564274;40;20029;-70
2021/05/19 05:28:29;;;;;;;6.82;5.65;;;14.70;77.00;;;;;;3561685;40;20045;-70
2021/05/19 05:30:55;;;;;;;6.85;5.22;;;15.00;73.40;;;;;;3561558;40;20037;-69
2021/05/19 05:33:22;;;;;;;6.93;5.40;;;15.20;73.10;;;;;;3560096;40;20081;-69
2021/05/19 05:35:48;;;;;;;5.80;4.95;;;15.30;72.40;;;;;;3560990;40;20092;-70
2021/05/19 05:38:14;;;;;;;8.15;5.13;;;15.50;71.90;;;;;;3556225;40;20042;-68
2021/05/19 05:40:40;;;;;;;6.40;4.95;;;15.40;71.00;;;;;;3560447;40;20107;-70
2021/05/19 05:43:05;;;;;;;6.85;5.85;;;15.30;72.10;;;;;;3561187;40;20085;-70
2021/05/19 05:45:31;;;;;;;6.72;4.80;;;15.10;72.40;;;;;;3561188;40;20033;-69
2021/05/19 05:47:57;;;;;;;6.63;4.93;;;15.10;73.60;;;;;;3560265;40;20048;-71
2021/05/19 05:50:24;;;;;;;5.88;4.80;;;15.40;73.00;;;;;;3561568;40;20045;-69
2021/05/19 05:52:50;;;;;;;6.13;5.07;;;15.80;71.60;;;;;;3562042;40;20020;-68
2021/05/19 05:55:17;;;;;;;5.15;4.65;;;16.10;69.30;;;;;;3561702;40;20034;-69
2021/05/19 05:57:42;;;;;;;7.45;5.40;;;16.20;70.00;;;;;;3561664;40;20033;-69
2021/05/19 06:00:12;;;;;;;6.43;5.18;;;16.30;69.00;;;;;;3560071;40;20320;-70
2021/05/19 06:02:42;;;;;;;6.95;5.57;;;16.30;68.10;;;;;;3557508;40;20681;-70
2021/05/19 06:05:09;;;;;;;5.63;4.65;;;16.30;68.50;;;;;;3561012;40;20021;-69
2021/05/19 06:07:35;;;;;;;7.57;5.00;;;16.20;67.80;;;;;;3561702;40;20049;-69
2021/05/19 06:10:00;;;;;;;7.35;5.20;;;16.10;68.50;;;;;;3559311;40;20421;-70
2021/05/19 06:12:26;;;;;;;7.85;5.07;;;16.10;68.50;;;;;;3561673;40;20304;-70
2021/05/19 06:14:52;;;;;;;6.78;5.07;;;16.00;69.00;;;;;;3561020;40;20081;-70
2021/05/19 06:17:18;;;;;;;6.95;4.75;;;16.00;68.90;;;;;;3561739;40;20096;-69
2021/05/19 06:19:44;;;;;;;7.10;5.32;;;15.90;68.80;;;;;;3560866;40;20528;-70
2021/05/19 06:22:09;;;;;;;6.03;4.88;;;15.90;67.80;;;;;;3561907;40;20092;-69
2021/05/19 06:24:36;;;;;;;6.70;4.57;;;15.80;68.30;;;;;;3561005;40;20037;-71
2021/05/19 06:27:04;;;;;;;5.75;4.70;;;15.80;68.60;;;;;;3561184;40;20022;-68
2021/05/19 06:29:30;;;;;;;5.20;4.68;;;15.90;69.40;;;;;;3561498;40;20030;-69
2021/05/19 06:31:56;;;;;;;6.90;4.75;;;15.80;68.90;;;;;;3560674;40;20557;-71
2021/05/19 06:34:22;;;;;;;7.32;4.47;;;15.90;68.80;;;;;;3561817;40;20040;-70
2021/05/19 06:36:49;;;;;;;4.82;4.32;;;15.80;67.80;;;;;;3559723;40;20034;-70
2021/05/19 06:39:17;;;;;;;4.90;4.40;;;15.70;68.00;;;;;;3562229;40;20114;-71
2021/05/19 06:41:45;;;;;;;4.97;4.13;;;15.70;69.20;;;;;;3561357;40;20029;-70
2021/05/19 06:44:13;;;;;;;5.88;4.38;;;15.60;68.50;;;;;;3561691;40;20798;-70
2021/05/19 06:46:39;;;;;;;5.43;4.38;;;15.70;69.20;;;;;;3561457;40;20041;-70
2021/05/19 06:49:05;;;;;;;6.97;4.90;;;15.60;69.60;;;;;;3561241;40;20026;-70
2021/05/19 06:51:31;;;;;;;4.85;3.80;;;15.80;69.50;;;;;;3557570;40;20033;-69
2021/05/19 06:53:57;;;;;;;5.47;3.95;;;16.00;68.10;;;;;;3560836;40;20037;-70
2021/05/19 06:56:25;;;;;;;5.82;4.43;;;16.00;66.00;;;;;;3562030;40;20107;-70
2021/05/19 06:58:50;;;;;;;4.03;3.60;;;15.90;66.80;;;;;;3559652;40;20112;-69
2021/05/19 07:01:16;;;;;;;7.72;3.90;;;15.90;68.00;;;;;;3559469;40;20399;-69
2021/05/19 07:03:42;;;;;;;3.70;3.35;;;15.90;67.20;;;;;;3560083;40;20082;-69
2021/05/19 07:06:08;;;;;;;4.57;3.53;;;16.00;67.20;;;;;;3562057;40;20670;-69
2021/05/19 07:08:33;;;;;;;4.50;3.15;;;16.10;66.10;;;;;;3560593;40;20143;-71
2021/05/19 07:10:59;;;;;;;4.28;3.00;;;16.20;65.00;;;;;;3557431;40;20392;-71
2021/05/19 07:13:28;;;;;;;5.68;3.13;;;16.20;66.10;;;;;;3561076;40;20025;-66
2021/05/19 07:15:55;;;;;;;3.30;3.00;;;16.30;64.70;;;;;;3561103;40;20030;-66
2021/05/19 07:18:21;;;;;;;3.42;2.90;;;16.50;63.10;;;;;;3561172;40;20033;-66
2021/05/19 07:20:48;;;;;;;3.38;2.78;;;16.50;63.70;;;;;;3560043;40;20414;-65
2021/05/19 07:23:14;;;;;;;3.63;3.00;;;16.50;64.20;;;;;;3560694;40;20077;-65
2021/05/19 07:25:40;;;;;;;3.30;2.83;;;16.60;64.40;;;;;;3561028;40;20026;-66
2021/05/19 07:28:08;;;;;;;5.10;2.88;;;16.70;61.50;;;;;;3560797;40;20029;-66
2021/05/19 07:30:34;;;;;;;3.28;2.50;;;16.60;61.60;;;;;;3561210;40;20033;-65
2021/05/19 07:33:00;;;;;;;2.67;2.47;;;16.50;61.40;;;;;;3561772;40;20127;-65
2021/05/19 07:35:26;;;;;;;2.67;2.47;;;16.40;62.30;;;;;;3561456;40;20366;-66
2021/05/19 07:37:52;;;;;;;5.53;3.53;;;16.40;62.70;;;;;;3560983;40;20038;-66
2021/05/19 07:40:18;;;;;;;3.35;2.78;;;16.40;61.50;;;;;;3561060;40;20073;-67
2021/05/19 07:42:44;;;;;;;4.28;3.03;;;16.30;60.80;;;;;;3561144;40;20329;-65
2021/05/19 07:45:10;;;;;;;3.72;2.88;;;16.40;63.00;;;;;;3560059;40;20040;-65
2021/05/19 07:47:36;;;;;;;3.10;2.70;;;16.50;63.20;;;;;;3561061;40;20045;-65
2021/05/19 07:50:03;;;;;;;2.80;2.30;;;16.50;62.40;;;;;;3560233;40;20654;-66
2021/05/19 07:52:29;;;;;;;6.22;2.75;;;16.50;61.10;;;;;;3558521;40;20036;-67
2021/05/19 07:54:55;;;;;;;3.65;2.90;;;16.70;60.00;;;;;;3559953;40;20063;-66
2021/05/19 07:57:24;;;;;;;4.35;2.63;;;16.80;59.80;;;;;;3559798;40;20061;-65
2021/05/19 08:00:08;;;;;;;3.30;2.78;;;16.90;60.90;;;;;;3559254;40;20376;-65
2021/05/19 08:02:38;;;;;;;4.30;3.33;;;17.10;60.00;;;;;;3559711;40;20134;-64
2021/05/19 08:05:04;;;;;;;5.53;3.20;;;17.00;60.30;;;;;;3560541;40;20875;-66
2021/05/19 08:07:29;;;;;;;5.07;3.20;;;17.10;60.90;;;;;;3565233;40;20030;-65
2021/05/19 08:09:55;;;;;;;2.83;2.33;;;17.10;61.70;;;;;;3558507;40;20030;-66
2021/05/19 08:12:21;;;;;;;4.38;2.88;;;17.30;60.00;;;;;;3560964;40;20085;-67
2021/05/19 08:14:46;;;;;;;5.18;2.53;;;17.40;59.20;;;;;;3560089;40;20064;-66
2021/05/19 08:17:12;;;;;;;3.85;2.78;;;17.50;57.20;;;;;;3559891;40;20042;-66
2021/05/19 08:19:38;;;;;;;3.78;2.70;;;17.50;56.60;;;;;;3559383;40;20093;-65
2021/05/19 08:22:07;;;;;;;5.93;2.10;;;17.50;56.60;;;;;;3559646;40;20083;-66
2021/05/19 08:24:33;;;;;;;2.15;1.95;;;17.60;55.60;;;;;;3559567;40;20030;-65
2021/05/19 08:26:59;;;;;;;2.40;1.98;;;17.50;55.80;;;;;;3557182;40;20750;-65
2021/05/19 08:29:25;;;;;;;3.03;2.28;;;17.50;54.80;;;;;;3560381;40;20041;-66
2021/05/19 08:31:51;;;;;;;3.17;1.90;;;17.60;55.90;;;;;;3559806;40;20053;-65
2021/05/19 08:34:16;;;;;;;3.20;2.17;;;17.70;53.70;;;;;;3559710;40;20060;-66
2021/05/19 08:36:42;;;;;;;2.58;1.92;;;17.70;54.20;;;;;;3559687;40;20122;-65
2021/05/19 08:39:08;;;;;;;1.77;1.67;;;17.90;54.60;;;;;;3560215;40;20702;-65
2021/05/19 08:41:34;;;;;;;2.17;1.60;;;17.90;53.60;;;;;;3559740;40;20014;-67
2021/05/19 08:43:59;;;;;;;2.70;1.73;;;17.90;54.20;;;;;;3560363;40;20042;-66
2021/05/19 08:46:26;;;;;;;2.70;1.60;;;17.90;53.70;;;;;;3559583;40;20022;-67
2021/05/19 08:49:00;;;;;;;1.55;1.40;;;18.10;51.70;;;;;;3560601;40;20030;-66
2021/05/19 08:51:27;;;;;;;2.55;1.70;;;18.30;51.90;;;;;;3558908;40;20038;-66
2021/05/19 08:53:52;;;;;;;1.92;1.67;;;18.50;51.70;;;;;;3559542;40;20080;-67
2021/05/19 08:56:18;;;;;;;2.55;2.05;;;18.60;52.40;;;;;;3559843;40;20658;-65
2021/05/19 08:58:44;;;;;;;3.10;2.30;;;18.90;53.00;;;;;;3559206;40;20433;-66
2021/05/19 09:01:21;;;;;;;2.17;1.98;;;18.90;51.60;;;;;;3559102;40;20040;-67
2021/05/19 09:04:04;;;;;;;2.35;2.00;;;18.80;53.20;;;;;;3558352;40;20026;-68
2021/05/19 09:06:30;;;;;;;1.63;1.52;;;18.80;52.50;;;;;;3558411;40;20061;-68
2021/05/19 09:08:56;;;;;;;3.25;2.25;;;18.80;52.80;;;;;;3559062;40;20034;-67
2021/05/19 09:11:21;;;;;;;2.60;1.98;;;18.60;54.00;;;;;;3558327;40;20386;-66
2021/05/19 09:13:47;;;;;;;3.47;1.88;;;18.70;53.90;;;;;;3559130;40;20044;-67
2021/05/19 09:16:27;;;;;;;4.13;1.63;;;18.70;51.80;;;;;;3558377;40;20025;-67
2021/05/19 09:18:57;;;;;;;3.60;1.70;;;18.70;52.10;;;;;;3559455;40;20051;-67
2021/05/19 09:21:41;;;;;;;2.58;2.05;;;18.70;52.30;;;;;;3559097;40;20081;-65
2021/05/19 09:24:21;;;;;;;3.28;2.20;;;18.60;51.90;;;;;;3559755;40;20026;-67
2021/05/19 09:26:52;;;;;;;4.35;2.65;;;18.50;49.60;;;;;;3554150;40;20082;-67
2021/05/19 09:29:20;;;;;;;3.10;2.00;;;18.40;53.60;;;;;;3556880;40;20466;-66
2021/05/19 09:31:58;;;;;;;5.20;2.08;;;18.40;50.80;;;;;;3560050;40;20149;-66
2021/05/19 09:34:37;;;;;;;5.18;3.40;;;18.50;52.00;;;;;;3558729;40;20092;-67
2021/05/19 09:37:12;;;;;;;3.75;1.90;;;18.60;51.70;;;;;;3560052;40;20033;-67
2021/05/19 09:39:48;;;;;;;1.90;1.80;;;18.60;50.30;;;;;;3558778;40;20041;-68
2021/05/19 09:42:14;;;;;;;;;;;18.60;51.00;;;;;;3560647;40;20038;-70
2021/05/19 09:44:40;;;;;;;1.80;1.30;;;18.60;50.80;;;;;;3563338;40;19940;-68
2021/05/19 09:47:06;;;;;;;2.47;1.63;;;18.60;49.60;;;;;;3561097;40;20038;-67
2021/05/19 09:49:31;;;;;;;2.75;1.40;;;18.50;50.30;;;;;;3560390;40;20037;-68
2021/05/19 09:52:09;;;;;;;2.75;1.83;;;18.60;49.60;;;;;;3559167;40;20025;-68
2021/05/19 09:54:42;;;;;;;2.28;2.08;;;18.60;51.00;;;;;;3557095;40;20419;-68
2021/05/19 09:57:17;;;;;;;2.88;1.88;;;18.50;51.20;;;;;;3557948;40;20038;-67
2021/05/19 09:59:45;;;;;;;2.28;1.45;;;18.60;50.00;;;;;;3557696;40;20122;-69
2021/05/19 10:02:12;;;;;;;2.72;1.55;;;18.50;50.40;;;;;;3560161;40;20722;-69
2021/05/19 10:04:39;;;;;;;3.25;2.58;;;18.40;50.60;;;;;;3559048;40;20828;-69
2021/05/19 10:07:17;;;;;;;2.75;1.80;;;18.20;50.00;;;;;;3560183;40;20041;-69
2021/05/19 10:09:43;;;;;;;4.28;1.95;;;18.00;50.60;;;;;;3558609;40;20022;-68
2021/05/19 10:12:10;;;;;;;1.50;1.40;;;17.90;51.70;;;;;;3561112;40;20548;-69
2021/05/19 10:14:36;;;;;;;2.00;1.80;;;17.90;51.70;;;;;;3560281;40;20030;-67
2021/05/19 10:17:09;;;;;;;2.72;1.85;;;18.00;53.00;;;;;;3561263;40;20037;-68
2021/05/19 10:19:38;;;;;;;2.13;1.65;;;18.40;51.50;;;;;;3560326;40;20044;-68
2021/05/19 10:22:08;;;;;;;1.77;1.60;;;18.70;50.90;;;;;;3560228;40;20026;-67
2021/05/19 10:24:57;;;;;;;1.95;1.75;;;18.90;51.50;;;;;;3562016;40;20047;-68
2021/05/19 10:27:23;;;;;;;1.77;1.40;;;19.10;50.30;;;;;;3561269;40;20081;-67
2021/05/19 10:29:55;;;;;;;4.90;1.67;;;19.40;49.30;;;;;;3561594;40;20040;-68
2021/05/19 10:32:28;;;;;;;2.65;1.60;;;19.60;49.30;;;;;;3560061;40;20045;-68
2021/05/19 10:34:59;;;;;;;2.30;1.35;;;19.90;48.20;;;;;;3562823;40;20058;-70
2021/05/19 10:37:28;;;;;;;4.13;1.60;;;19.90;46.80;;;;;;3561960;40;20038;-70
2021/05/19 10:40:18;;;;;;;4.00;1.75;;;19.90;46.40;;;;;;3560838;40;20045;-69
2021/05/19 10:42:58;;;;;;;1.67;1.23;;;19.90;46.40;;;;;;3559985;40;20072;-68
2021/05/19 10:45:25;;;;;;;1.83;1.45;;;20.00;47.70;;;;;;3558496;40;20139;-69
2021/05/19 10:47:51;;;;;;;1.83;1.65;;;20.20;46.20;;;;;;3560867;40;20111;-70
2021/05/19 10:50:36;;;;;;;1.58;1.48;;;20.40;45.10;;;;;;3560541;40;20431;-70
2021/05/19 10:58:58;;;;;;;3.15;1.80;;;20.50;46.40;;;;;;3561712;40;20164;-69
2021/05/19 11:01:39;;;;;;;1.48;1.17;;;20.30;46.90;;;;;;3558677;40;20699;-66
2021/05/19 11:04:16;;;;;;;1.23;1.15;;;20.10;47.00;;;;;;3567126;40;20455;-69
2021/05/19 11:06:57;;;;;;;1.83;1.50;;;19.90;46.60;;;;;;3560540;40;20046;-68
2021/05/19 11:09:34;;;;;;;1.60;1.40;;;19.80;47.50;;;;;;3559738;40;20040;-69
2021/05/19 11:12:20;;;;;;;1.80;1.60;;;19.80;46.70;;;;;;3560262;40;20038;-69
2021/05/19 11:14:50;;;;;;;;;;;19.70;47.60;;;;;;3558916;40;20026;-72
2021/05/19 11:17:28;;;;;;;1.77;1.60;;;19.50;48.20;;;;;;3559134;40;19937;-70
2021/05/19 11:19:54;;;;;;;1.65;1.40;;;19.20;47.80;;;;;;3560034;40;20451;-67
2021/05/19 11:22:21;;;;;;;2.10;1.85;;;19.00;49.40;;;;;;3561114;40;20121;-71
2021/05/19 11:24:58;;;;;;;1.95;1.80;;;18.90;50.90;;;;;;3561367;40;20425;-72
2021/05/19 11:27:27;;;;;;;4.45;2.10;;;18.70;50.30;;;;;;3561052;40;20049;-72
2021/05/19 11:29:54;;;;;;;2.05;1.65;;;18.70;48.40;;;;;;3559933;40;20046;-71
2021/05/19 11:32:25;;;;;;;2.15;1.67;;;18.60;50.20;;;;;;3560626;40;20101;-70
2021/05/19 11:34:51;;;;;;;1.70;1.60;;;18.50;50.10;;;;;;3559674;40;20339;-67
2021/05/19 11:37:19;;;;;;;1.85;1.75;;;18.60;50.00;;;;;;3560152;40;20126;-67
2021/05/19 11:39:50;;;;;;;2.90;1.55;;;18.60;49.80;;;;;;3560375;40;20037;-66
2021/05/19 11:42:30;;;;;;;2.45;1.75;;;18.70;51.00;;;;;;3554437;40;20033;-66
2021/05/19 11:45:09;;;;;;;1.60;1.50;;;18.80;49.30;;;;;;3559462;40;20095;-67
2021/05/19 11:47:38;;;;;;;2.28;1.60;;;19.10;49.20;;;;;;3559987;40;20041;-68
2021/05/19 11:50:07;;;;;;;1.60;1.40;;;19.30;48.90;;;;;;3561654;40;20692;-71
2021/05/19 11:52:39;;;;;;;1.50;1.40;;;19.40;45.10;;;;;;3559223;40;20037;-69
2021/05/19 11:55:05;;;;;;;3.60;1.60;;;19.40;45.10;;;;;;3559723;40;20078;-72
2021/05/19 11:57:31;;;;;;;3.88;1.60;;;19.50;45.50;;;;;;3558372;40;20513;-71
2021/05/19 11:59:57;;;;;;;2.80;1.70;;;19.40;47.60;;;;;;3559568;40;20021;-72
2021/05/19 12:02:22;;;;;;;1.48;1.20;;;19.40;45.80;;;;;;3560206;40;20041;-71
2021/05/19 12:04:48;;;;;;;1.48;1.38;;;19.30;46.50;;;;;;3557140;40;20494;-71
2021/05/19 12:07:16;;;;;;;2.90;1.40;;;19.30;46.50;;;;;;3558928;40;20048;-71
2021/05/19 12:09:43;;;;;;;2.78;1.50;;;19.40;46.10;;;;;;3559702;40;20040;-71
2021/05/19 12:12:12;;;;;;;1.50;1.40;;;19.40;46.10;;;;;;3559606;40;20303;-70
2021/05/19 12:14:59;;;;;;;1.52;1.42;;;19.50;45.30;;;;;;3559765;40;20033;-72
2021/05/19 12:17:26;;;;;;;1.48;1.30;;;19.60;48.00;;;;;;3559428;40;20146;-71
2021/05/19 12:19:52;;;;;;;1.40;1.30;;;19.60;46.30;;;;;;3558541;40;20033;-69
2021/05/19 12:22:22;;;;;;;1.38;1.27;;;19.70;47.10;;;;;;3559835;40;20048;-68
2021/05/19 12:24:48;;;;;;;1.63;1.52;;;19.80;44.70;;;;;;3559674;40;20041;-70
2021/05/19 12:27:20;;;;;;;2.35;1.45;;;19.80;44.60;;;;;;3559690;40;20041;-70
2021/05/19 12:29:49;;;;;;;1.50;1.40;;;19.70;46.80;;;;;;3555192;40;20033;-70
2021/05/19 12:32:26;;;;;;;1.60;1.50;;;19.60;45.60;;;;;;3559601;40;20022;-69
2021/05/19 12:35:09;;;;;;;1.50;1.30;;;19.50;44.60;;;;;;3559734;40;20033;-71
2021/05/19 12:37:51;;;;;;;2.35;1.10;;;19.50;47.20;;;;;;3566707;40;20404;-70
2021/05/19 12:40:22;;;;;;;1.27;1.17;;;19.40;46.90;;;;;;3557505;40;20052;-72
2021/05/19 12:42:53;;;;;;;2.13;1.25;;;19.50;47.20;;;;;;3559569;40;20675;-73
2021/05/19 12:45:36;;;;;;;2.03;1.35;;;19.60;45.60;;;;;;3559134;40;20097;-71
2021/05/19 12:48:09;;;;;;;1.20;1.10;;;19.50;45.90;;;;;;3559975;40;20116;-69
2021/05/19 12:50:59;;;;;;;1.42;1.33;;;19.40;46.20;;;;;;3558706;40;20030;-74
2021/05/19 12:53:41;;;;;;;1.40;1.30;;;19.50;46.60;;;;;;3560720;40;20035;-73
2021/05/19 12:56:10;;;;;;;1.35;1.25;;;19.60;46.50;;;;;;3558941;40;20093;-68
2021/05/19 12:58:56;;;;;;;1.30;1.20;;;19.60;46.60;;;;;;3560009;40;20041;-73
2021/05/19 13:01:23;;;;;;;1.38;1.10;;;19.60;47.10;;;;;;3558259;40;20040;-72
2021/05/19 13:03:48;;;;;;;2.17;1.27;;;19.60;46.90;;;;;;3559564;40;20038;-72